Albany, New York
Traffic Map
Current Weather Conditions
Albany, New York
Broken Clouds
Broken Clouds
-2°
Feels Like: -10°
Wind Chill: -10° Ceiling: 4100
Heat Index: -2° Visibility: 10mi
Dew Point: -11° Wind: 22mph
Humidity: 53% Direction: 290° (WNW)
Pressure: 29.89in Gusts: 36mph
Raw Report DataKALB 302051Z 29019G31KT 10SM FEW032 BKN041 BKN080 BKN200 M02/M11 A2989 RMK AO2 PK WND 30031/2044 SLP124 DRSN VCSH E 60000 T10221106 53016
Traffic Incident Summary
Active as of:
Severity:
Category:
InformationThere was an issue retrieving the traffic information for this location. Please try a different location or try again shortly.
Advertisements
Track Severe Weather on mobile